createdAt,value
2018-07-26T00:00:22.429Z,0
2018-07-26T00:01:22.403Z,0
2018-07-26T00:02:21.861Z,0
2018-07-26T00:03:22.118Z,0
2018-07-26T00:04:22.365Z,0
2018-07-26T00:05:22.361Z,0
2018-07-26T00:06:22.361Z,0
2018-07-26T00:07:22.341Z,0
2018-07-26T00:08:22.071Z,0
2018-07-26T00:09:22.343Z,0
2018-07-26T00:10:21.799Z,0
2018-07-26T00:11:22.310Z,0
2018-07-26T00:12:22.710Z,0
2018-07-26T00:13:22.043Z,0
2018-07-26T00:14:22.554Z,0
2018-07-26T00:15:22.018Z,0
2018-07-26T00:16:22.274Z,0
2018-07-26T00:17:21.738Z,0
2018-07-26T00:18:21.989Z,0
2018-07-26T00:19:21.983Z,0
2018-07-26T00:20:22.246Z,0
2018-07-26T00:21:21.978Z,0
2018-07-26T00:22:21.963Z,0
2018-07-26T00:23:22.228Z,0
2018-07-26T00:24:21.952Z,0
2018-07-26T00:25:22.199Z,0
2018-07-26T00:26:21.930Z,0
2018-07-26T00:27:21.925Z,0
2018-07-26T00:28:22.180Z,0
2018-07-26T00:29:21.910Z,0
2018-07-26T00:30:22.168Z,0
2018-07-26T00:31:22.159Z,0
2018-07-26T00:32:22.169Z,0
2018-07-26T00:33:22.143Z,0
2018-07-26T00:34:22.399Z,0
2018-07-26T00:35:22.392Z,0
2018-07-26T00:36:21.591Z,0
2018-07-26T00:37:22.109Z,0
2018-07-26T00:38:22.098Z,0
2018-07-26T00:39:21.839Z,0
2018-07-26T00:40:21.826Z,0
2018-07-26T00:41:22.620Z,0
2018-07-26T00:42:21.806Z,0
2018-07-26T00:43:21.802Z,0
2018-07-26T00:44:21.798Z,0
2018-07-26T00:45:21.810Z,0
2018-07-26T00:46:21.763Z,0
2018-07-26T00:47:22.019Z,0
2018-07-26T00:48:22.022Z,0
2018-07-26T00:49:22.286Z,0
2018-07-26T00:50:22.005Z,0
2018-07-26T00:51:21.477Z,0
2018-07-26T00:52:21.722Z,0
2018-07-26T00:53:21.701Z,0
2018-07-26T00:54:22.234Z,0
2018-07-26T00:55:21.979Z,0
2018-07-26T00:56:21.425Z,0
2018-07-26T00:57:21.942Z,0
2018-07-26T00:58:21.946Z,0
2018-07-26T00:59:21.686Z,0
2018-07-26T01:00:21.916Z,0
2018-07-26T01:01:22.190Z,0
2018-07-26T01:02:21.638Z,0
2018-07-26T01:03:22.163Z,0
2018-07-26T01:04:21.887Z,0
2018-07-26T01:05:21.616Z,0
2018-07-26T01:06:21.866Z,0
2018-07-26T01:07:21.333Z,0
2018-07-26T01:08:21.060Z,0
2018-07-26T01:09:21.582Z,0
2018-07-26T01:10:22.096Z,0
2018-07-26T01:11:21.567Z,0
2018-07-26T01:12:21.814Z,0
2018-07-26T01:13:21.547Z,0
2018-07-26T01:14:22.063Z,0
2018-07-26T01:15:21.260Z,0
2018-07-26T01:16:22.044Z,0
2018-07-26T01:17:21.783Z,0
2018-07-26T01:18:21.496Z,0
2018-07-26T01:19:21.752Z,0
2018-07-26T01:20:21.750Z,0
2018-07-26T01:21:21.727Z,0
2018-07-26T01:22:21.458Z,0
2018-07-26T01:23:21.194Z,0
2018-07-26T01:24:21.448Z,0
2018-07-26T01:25:21.445Z,0
2018-07-26T01:26:21.427Z,0
2018-07-26T01:27:20.901Z,0
2018-07-26T01:28:21.682Z,0
2018-07-26T01:29:20.883Z,0
2018-07-26T01:30:21.928Z,0
2018-07-26T01:31:21.393Z,0
2018-07-26T01:32:21.445Z,0
2018-07-26T01:33:21.371Z,0
2018-07-26T01:34:21.356Z,0
2018-07-26T01:35:21.880Z,0
2018-07-26T01:36:21.618Z,0
2018-07-26T01:37:21.598Z,0
2018-07-26T01:38:21.357Z,0
2018-07-26T01:39:21.583Z,0
2018-07-26T01:40:21.322Z,0
2018-07-26T01:41:21.309Z,0
2018-07-26T01:42:21.578Z,0
2018-07-26T01:43:21.559Z,0
2018-07-26T01:44:21.549Z,0
2018-07-26T01:45:21.270Z,0
2018-07-26T01:46:21.789Z,0
2018-07-26T01:47:20.990Z,0
2018-07-26T01:48:21.253Z,0
2018-07-26T01:49:21.240Z,0
2018-07-26T01:50:20.965Z,0
2018-07-26T01:51:20.957Z,0
2018-07-26T01:52:21.214Z,0
2018-07-26T01:53:21.204Z,0
2018-07-26T01:54:20.929Z,0
2018-07-26T01:55:21.450Z,0
2018-07-26T01:56:21.186Z,0
2018-07-26T01:57:21.174Z,0
2018-07-26T01:58:21.162Z,0
2018-07-26T01:59:21.147Z,0
2018-07-26T02:00:21.409Z,0
2018-07-26T02:01:21.135Z,0
2018-07-26T02:02:21.123Z,0
2018-07-26T02:03:21.651Z,0
2018-07-26T02:04:20.844Z,0
2018-07-26T02:05:21.634Z,0
2018-07-26T02:06:20.825Z,0
2018-07-26T02:07:21.077Z,0
2018-07-26T02:08:21.074Z,0
2018-07-26T02:09:21.337Z,0
2018-07-26T02:10:20.794Z,0
2018-07-26T02:11:21.313Z,0
2018-07-26T02:12:20.773Z,0
2018-07-26T02:13:20.973Z,0
2018-07-26T02:14:21.026Z,0
2018-07-26T02:15:21.279Z,0
2018-07-26T02:16:21.531Z,0
2018-07-26T02:17:21.259Z,0
2018-07-26T02:18:21.525Z,0
2018-07-26T02:19:21.237Z,0
2018-07-26T02:20:20.969Z,0
2018-07-26T02:21:20.957Z,0
2018-07-26T02:22:21.218Z,0
2018-07-26T02:23:20.946Z,0
2018-07-26T02:24:20.952Z,0
2018-07-26T02:25:20.713Z,0
2018-07-26T02:26:21.180Z,0
2018-07-26T02:27:20.916Z,0
2018-07-26T02:28:21.161Z,0
2018-07-26T02:29:20.908Z,0
2018-07-26T02:30:20.620Z,0
2018-07-26T02:31:21.261Z,0
2018-07-26T02:32:21.130Z,0
2018-07-26T02:33:20.596Z,0
2018-07-26T02:34:20.851Z,0
2018-07-26T02:35:21.101Z,0
2018-07-26T02:36:21.110Z,0
2018-07-26T02:37:21.098Z,0
2018-07-26T02:38:20.831Z,0
2018-07-26T02:39:21.143Z,0
2018-07-26T02:40:20.543Z,0
2018-07-26T02:41:21.051Z,0
2018-07-26T02:42:20.783Z,0
2018-07-26T02:43:21.034Z,0
2018-07-26T02:44:21.019Z,0
2018-07-26T02:45:20.486Z,0
2018-07-26T02:46:20.755Z,0
2018-07-26T02:47:21.256Z,0
2018-07-26T02:48:21.284Z,0
2018-07-26T02:49:20.716Z,0
2018-07-26T02:50:20.965Z,0
2018-07-26T02:51:20.981Z,0
2018-07-26T02:52:20.694Z,0
2018-07-26T02:53:20.953Z,0
2018-07-26T02:54:20.933Z,0
2018-07-26T02:55:20.672Z,0
2018-07-26T02:56:20.647Z,0
2018-07-26T02:57:20.907Z,0
2018-07-26T02:58:20.644Z,0
2018-07-26T02:59:20.626Z,0
2018-07-26T03:00:20.093Z,0
2018-07-26T03:01:20.883Z,0
2018-07-26T03:02:20.598Z,0
2018-07-26T03:03:20.587Z,0
2018-07-26T03:04:20.323Z,0
2018-07-26T03:05:20.311Z,0
2018-07-26T03:06:20.832Z,0
2018-07-26T03:07:21.280Z,0
2018-07-26T03:08:20.539Z,0
2018-07-26T03:09:20.550Z,0
2018-07-26T03:10:21.053Z,0
2018-07-26T03:11:20.531Z,0
2018-07-26T03:12:20.797Z,0
2018-07-26T03:13:20.505Z,0
2018-07-26T03:14:21.039Z,0
2018-07-26T03:15:20.484Z,0
2018-07-26T03:16:20.473Z,0
2018-07-26T03:17:20.733Z,0
2018-07-26T03:18:20.727Z,0
2018-07-26T03:19:20.710Z,0
2018-07-26T03:20:20.468Z,0
2018-07-26T03:21:20.686Z,0
2018-07-26T03:22:20.412Z,0
2018-07-26T03:23:20.683Z,0
2018-07-26T03:24:20.433Z,0
2018-07-26T03:25:20.668Z,0
2018-07-26T03:26:20.641Z,0
2018-07-26T03:27:19.842Z,0
2018-07-26T03:28:20.366Z,0
2018-07-26T03:29:20.884Z,0
2018-07-26T03:30:20.896Z,0
2018-07-26T03:31:20.070Z,0
2018-07-26T03:32:20.067Z,0
2018-07-26T03:33:20.051Z,0
2018-07-26T03:34:20.575Z,0
2018-07-26T03:35:20.558Z,0
2018-07-26T03:36:20.805Z,0
2018-07-26T03:37:20.317Z,0
2018-07-26T03:38:20.807Z,0
2018-07-26T03:39:20.790Z,0
2018-07-26T03:40:20.504Z,0
2018-07-26T03:41:19.976Z,0
2018-07-26T03:42:20.499Z,0
2018-07-26T03:43:20.494Z,0
2018-07-26T03:44:20.214Z,0
2018-07-26T03:45:20.209Z,0
2018-07-26T03:46:20.462Z,0
2018-07-26T03:47:20.444Z,0
2018-07-26T03:48:20.439Z,0
2018-07-26T03:49:20.200Z,5
2018-07-26T03:50:20.168Z,5
2018-07-26T03:51:20.317Z,5
2018-07-26T03:52:20.693Z,5
2018-07-26T03:53:20.393Z,5
2018-07-26T03:54:19.864Z,5
2018-07-26T03:55:20.376Z,5
2018-07-26T03:56:19.829Z,5
2018-07-26T03:57:20.361Z,5
2018-07-26T03:58:20.096Z,5
2018-07-26T03:59:20.073Z,5
2018-07-26T04:00:20.335Z,5
2018-07-26T04:01:20.053Z,5
2018-07-26T04:02:19.795Z,10
2018-07-26T04:03:20.124Z,10
2018-07-26T04:04:19.764Z,10
2018-07-26T04:05:20.009Z,10
2018-07-26T04:06:19.750Z,10
2018-07-26T04:07:20.001Z,10
2018-07-26T04:08:19.995Z,10
2018-07-26T04:09:20.515Z,10
2018-07-26T04:10:19.712Z,10
2018-07-26T04:11:19.956Z,10
2018-07-26T04:12:19.674Z,15
2018-07-26T04:13:19.882Z,15
2018-07-26T04:14:19.668Z,15
2018-07-26T04:15:19.926Z,15
2018-07-26T04:16:19.652Z,15
2018-07-26T04:17:19.646Z,15
2018-07-26T04:18:19.899Z,15
2018-07-26T04:19:20.159Z,15
2018-07-26T04:20:20.195Z,20
2018-07-26T04:21:19.866Z,20
2018-07-26T04:22:19.851Z,20
2018-07-26T04:23:20.117Z,20
2018-07-26T04:24:20.108Z,20
2018-07-26T04:25:19.585Z,20
2018-07-26T04:26:19.936Z,20
2018-07-26T04:27:20.384Z,20
2018-07-26T04:28:19.808Z,20
2018-07-26T04:29:20.342Z,20
2018-07-26T04:30:20.064Z,25
2018-07-26T04:31:19.785Z,25
2018-07-26T04:32:19.724Z,25
2018-07-26T04:33:19.504Z,25
2018-07-26T04:34:20.020Z,25
2018-07-26T04:35:19.489Z,25
2018-07-26T04:36:19.734Z,25
2018-07-26T04:37:19.455Z,25
2018-07-26T04:38:19.713Z,25
2018-07-26T04:39:19.978Z,25
2018-07-26T04:40:19.958Z,25
2018-07-26T04:41:19.452Z,25
2018-07-26T04:42:19.984Z,25
2018-07-26T04:43:19.931Z,25
2018-07-26T04:44:19.914Z,30
2018-07-26T04:45:19.650Z,30
2018-07-26T04:46:19.378Z,30
2018-07-26T04:47:19.106Z,30
2018-07-26T04:48:19.630Z,30
2018-07-26T04:49:19.610Z,30
2018-07-26T04:50:19.870Z,30
2018-07-26T04:51:19.591Z,30
2018-07-26T04:52:19.844Z,30
2018-07-26T04:53:19.845Z,35
2018-07-26T04:54:19.557Z,35
2018-07-26T04:55:19.569Z,35
2018-07-26T04:56:19.018Z,35
2018-07-26T04:57:19.808Z,35
2018-07-26T04:58:19.522Z,35
2018-07-26T04:59:19.788Z,35
2018-07-26T05:00:19.797Z,35
2018-07-26T05:01:19.508Z,40
2018-07-26T05:02:19.503Z,40
2018-07-26T05:03:19.220Z,40
2018-07-26T05:04:19.492Z,40
2018-07-26T05:05:19.477Z,40
2018-07-26T05:06:19.193Z,40
2018-07-26T05:07:19.176Z,40
2018-07-26T05:08:19.955Z,40
2018-07-26T05:09:19.981Z,45
2018-07-26T05:10:19.681Z,45
2018-07-26T05:11:19.441Z,45
2018-07-26T05:12:19.143Z,45
2018-07-26T05:13:19.933Z,45
2018-07-26T05:14:19.114Z,45
2018-07-26T05:15:19.659Z,45
2018-07-26T05:16:19.361Z,45
2018-07-26T05:17:19.645Z,45
2018-07-26T05:18:19.675Z,45
2018-07-26T05:19:19.521Z,50
2018-07-26T05:20:19.589Z,50
2018-07-26T05:21:19.611Z,50
2018-07-26T05:22:19.045Z,50
2018-07-26T05:23:19.311Z,50
2018-07-26T05:24:19.557Z,50
2018-07-26T05:25:19.315Z,50
2018-07-26T05:26:19.287Z,50
2018-07-26T05:27:19.009Z,50
2018-07-26T05:28:19.262Z,50
2018-07-26T05:29:19.520Z,55
2018-07-26T05:30:19.507Z,55
2018-07-26T05:31:19.772Z,55
2018-07-26T05:32:19.221Z,55
2018-07-26T05:33:18.958Z,55
2018-07-26T05:34:19.730Z,55
2018-07-26T05:35:19.207Z,55
2018-07-26T05:36:18.927Z,55
2018-07-26T05:37:19.448Z,55
2018-07-26T05:38:19.434Z,55
2018-07-26T05:39:19.434Z,60
2018-07-26T05:40:19.161Z,60
2018-07-26T05:41:18.889Z,60
2018-07-26T05:42:19.141Z,60
2018-07-26T05:43:19.338Z,60
2018-07-26T05:44:18.898Z,60
2018-07-26T05:45:19.638Z,60
2018-07-26T05:46:19.370Z,60
2018-07-26T05:47:19.367Z,60
2018-07-26T05:48:18.828Z,65
2018-07-26T05:49:19.344Z,65
2018-07-26T05:50:19.606Z,65
2018-07-26T05:51:18.802Z,65
2018-07-26T05:52:18.797Z,65
2018-07-26T05:53:19.459Z,65
2018-07-26T05:54:19.315Z,65
2018-07-26T05:55:19.290Z,65
2018-07-26T05:56:19.021Z,65
2018-07-26T05:57:19.024Z,65
2018-07-26T05:58:19.537Z,65
2018-07-26T05:59:19.003Z,65
2018-07-26T06:00:19.504Z,65
2018-07-26T06:01:19.246Z,65
2018-07-26T06:02:19.498Z,65
2018-07-26T06:03:18.972Z,65
2018-07-26T06:04:18.967Z,65
2018-07-26T06:05:18.950Z,70
2018-07-26T06:06:18.944Z,70
2018-07-26T06:07:18.664Z,70
2018-07-26T06:08:19.457Z,70
2018-07-26T06:09:19.181Z,70
2018-07-26T06:10:19.177Z,70
2018-07-26T06:11:19.181Z,70
2018-07-26T06:12:18.642Z,75
2018-07-26T06:13:19.140Z,75
2018-07-26T06:14:18.879Z,75
2018-07-26T06:15:18.862Z,75
2018-07-26T06:16:18.605Z,75
2018-07-26T06:17:18.747Z,75
2018-07-26T06:18:18.916Z,80
2018-07-26T06:19:18.839Z,80
2018-07-26T06:20:19.384Z,80
2018-07-26T06:21:19.362Z,80
2018-07-26T06:22:18.823Z,85
2018-07-26T06:23:18.804Z,85
2018-07-26T06:24:19.067Z,85
2018-07-26T06:25:19.343Z,90
2018-07-26T06:26:19.052Z,90
2018-07-26T06:27:19.055Z,90
2018-07-26T06:28:19.682Z,95
2018-07-26T06:29:18.492Z,95
2018-07-26T06:30:19.067Z,95
2018-07-26T06:31:18.480Z,90
2018-07-26T06:32:18.208Z,90
2018-07-26T06:33:19.045Z,85
2018-07-26T06:34:18.999Z,85
2018-07-26T06:35:18.715Z,90
2018-07-26T06:36:18.451Z,90
2018-07-26T06:37:18.964Z,95
2018-07-26T06:38:18.692Z,95
2018-07-26T06:39:18.169Z,100
2018-07-26T06:40:18.942Z,100
2018-07-26T06:41:18.406Z,105
2018-07-26T06:42:18.400Z,105
2018-07-26T06:43:18.657Z,100
2018-07-26T06:44:18.641Z,100
2018-07-26T06:45:18.899Z,105
2018-07-26T06:46:18.634Z,110
2018-07-26T06:47:18.751Z,110
2018-07-26T06:48:18.621Z,115
2018-07-26T06:49:18.613Z,110
2018-07-26T06:50:18.351Z,110
2018-07-26T06:51:18.850Z,110
2018-07-26T06:52:18.591Z,110
2018-07-26T06:53:19.362Z,115
2018-07-26T06:54:18.853Z,115
2018-07-26T06:55:18.840Z,115
2018-07-26T06:56:18.561Z,110
2018-07-26T06:57:18.556Z,110
2018-07-26T06:58:18.819Z,110
2018-07-26T06:59:19.068Z,110
2018-07-26T07:00:18.271Z,105
2018-07-26T07:01:18.524Z,105
2018-07-26T07:02:18.513Z,105
2018-07-26T07:03:18.778Z,115
2018-07-26T07:04:18.249Z,120
2018-07-26T07:05:18.765Z,120
2018-07-26T07:06:18.496Z,120
2018-07-26T07:07:19.015Z,115
2018-07-26T07:08:18.750Z,110
2018-07-26T07:09:18.733Z,105
2018-07-26T07:10:18.611Z,105
2018-07-26T07:11:18.467Z,105
2018-07-26T07:12:18.731Z,105
2018-07-26T07:13:18.709Z,105
2018-07-26T07:14:18.973Z,105
2018-07-26T07:15:18.706Z,105
2018-07-26T07:16:18.688Z,105
2018-07-26T07:17:18.692Z,105
2018-07-26T07:18:18.158Z,105
2018-07-26T07:19:18.417Z,105
2018-07-26T07:20:18.399Z,105
2018-07-26T07:21:17.865Z,105
2018-07-26T07:22:18.388Z,105
2018-07-26T07:23:18.642Z,105
2018-07-26T07:24:18.914Z,110
2018-07-26T07:25:18.104Z,110
2018-07-26T07:26:18.985Z,110
2018-07-26T07:27:18.885Z,110
2018-07-26T07:28:18.364Z,110
2018-07-26T07:29:18.913Z,110
2018-07-26T07:30:18.870Z,115
2018-07-26T07:31:18.335Z,115
2018-07-26T07:32:18.590Z,115
2018-07-26T07:33:17.809Z,120
2018-07-26T07:34:18.579Z,120
2018-07-26T07:35:18.573Z,360
2018-07-26T07:36:18.570Z,765
2018-07-26T07:37:18.297Z,845
2018-07-26T07:38:18.601Z,875
2018-07-26T07:39:18.820Z,920
2018-07-26T07:40:18.297Z,965
2018-07-26T07:41:18.279Z,970
2018-07-26T07:42:18.283Z,970
2018-07-26T07:43:18.533Z,960
2018-07-26T07:44:18.006Z,980
2018-07-26T07:45:17.731Z,1015
2018-07-26T07:46:18.262Z,1005
2018-07-26T07:47:17.779Z,1010
2018-07-26T07:48:18.249Z,1035
2018-07-26T07:49:17.984Z,1055
2018-07-26T07:50:18.240Z,1050
2018-07-26T07:51:18.242Z,1025
2018-07-26T07:52:18.501Z,1065
2018-07-26T07:53:18.513Z,1125
2018-07-26T07:54:18.230Z,1145
2018-07-26T07:55:18.760Z,1180
2018-07-26T07:56:18.496Z,1210
2018-07-26T07:57:18.494Z,1200
2018-07-26T07:58:18.228Z,1155
2018-07-26T07:59:17.970Z,1130
2018-07-26T08:00:18.231Z,1150
2018-07-26T08:01:18.229Z,1165
2018-07-26T08:02:18.769Z,1135
2018-07-26T08:03:18.243Z,1175
2018-07-26T08:04:17.967Z,1225
2018-07-26T08:05:18.076Z,1230
2018-07-26T08:06:18.782Z,1205
2018-07-26T08:07:18.498Z,1200
2018-07-26T08:08:17.962Z,1225
2018-07-26T08:09:18.511Z,1255
2018-07-26T08:10:17.981Z,1275
2018-07-26T08:11:18.870Z,1290
2018-07-26T08:12:18.241Z,1295
2018-07-26T08:13:18.451Z,1295
2018-07-26T08:14:18.509Z,1275
2018-07-26T08:15:18.260Z,1250
2018-07-26T08:16:18.258Z,1225
2018-07-26T08:17:18.265Z,1245
2018-07-26T08:18:18.257Z,1300
2018-07-26T08:19:18.252Z,1320
2018-07-26T08:20:18.265Z,1335
2018-07-26T08:21:18.578Z,1345
2018-07-26T08:22:18.270Z,1340
2018-07-26T08:23:18.013Z,1345
2018-07-26T08:24:18.283Z,1330
2018-07-26T08:25:18.275Z,1315
2018-07-26T08:26:18.816Z,1250
2018-07-26T08:27:18.551Z,1245
2018-07-26T08:28:18.551Z,1340
2018-07-26T08:29:18.594Z,1295
2018-07-26T08:30:18.036Z,1210
2018-07-26T08:31:18.582Z,1275
2018-07-26T08:32:18.049Z,1340
2018-07-26T08:33:18.043Z,1395
2018-07-26T08:34:18.325Z,1405
2018-07-26T08:35:18.138Z,1380
2018-07-26T08:36:18.875Z,1365
2018-07-26T08:37:18.336Z,1385
2018-07-26T08:38:18.598Z,1390
2018-07-26T08:39:18.340Z,1360
2018-07-26T08:40:18.610Z,1355
2018-07-26T08:41:18.782Z,1275
2018-07-26T08:42:18.626Z,1295
2018-07-26T08:43:18.630Z,1145
2018-07-26T08:44:18.639Z,380
2018-07-26T08:45:18.900Z,190
2018-07-26T08:46:18.366Z,215
2018-07-26T08:47:18.380Z,295
2018-07-26T08:48:18.620Z,255
2018-07-26T08:49:18.667Z,225
2018-07-26T08:50:18.382Z,160
2018-07-26T08:51:18.407Z,140
2018-07-26T08:52:18.270Z,140
2018-07-26T08:53:18.402Z,140
2018-07-26T08:54:18.334Z,140
2018-07-26T08:55:18.135Z,170
2018-07-26T08:56:18.407Z,150
2018-07-26T08:57:18.144Z,145
2018-07-26T08:58:18.151Z,145
2018-07-26T08:59:18.687Z,185
2018-07-26T09:00:18.687Z,205
2018-07-26T09:01:18.573Z,510
2018-07-26T09:02:18.159Z,530
2018-07-26T09:03:18.424Z,340
2018-07-26T09:04:18.424Z,265
2018-07-26T09:05:18.411Z,510
2018-07-26T09:06:18.421Z,690
2018-07-26T09:07:18.423Z,535
2018-07-26T09:08:18.164Z,820
2018-07-26T09:09:18.985Z,755
2018-07-26T09:10:18.961Z,635
2018-07-26T09:11:18.432Z,240
2018-07-26T09:12:18.687Z,175
2018-07-26T09:13:18.434Z,250
2018-07-26T09:14:18.692Z,385
2018-07-26T09:15:18.694Z,695
2018-07-26T09:16:18.440Z,340
2018-07-26T09:17:18.325Z,215
2018-07-26T09:18:18.967Z,245
2018-07-26T09:19:18.697Z,185
2018-07-26T09:20:18.696Z,200
2018-07-26T09:21:18.703Z,210
2018-07-26T09:22:18.691Z,360
2018-07-26T09:23:18.165Z,420
2018-07-26T09:24:18.747Z,340
2018-07-26T09:25:18.695Z,250
2018-07-26T09:26:18.626Z,285
2018-07-26T09:27:17.902Z,230
2018-07-26T09:28:18.418Z,270
2018-07-26T09:29:18.434Z,580
2018-07-26T09:30:18.710Z,270
2018-07-26T09:31:18.435Z,165
2018-07-26T09:32:18.158Z,170
2018-07-26T09:33:18.234Z,165
2018-07-26T09:34:17.897Z,225
2018-07-26T09:35:18.478Z,165
2018-07-26T09:36:18.429Z,200
2018-07-26T09:37:18.692Z,160
2018-07-26T09:38:18.956Z,160
2018-07-26T09:39:18.421Z,150
2018-07-26T09:40:18.963Z,150
2018-07-26T09:41:17.897Z,220
2018-07-26T09:42:18.422Z,190
2018-07-26T09:43:18.948Z,155
2018-07-26T09:44:18.418Z,170
2018-07-26T09:45:18.689Z,155
2018-07-26T09:46:18.684Z,420
2018-07-26T09:47:18.532Z,580
2018-07-26T09:48:18.413Z,540
2018-07-26T09:49:18.691Z,280
2018-07-26T09:50:18.683Z,190
2018-07-26T09:51:18.417Z,210
2018-07-26T09:52:18.698Z,155
2018-07-26T09:53:18.148Z,150
2018-07-26T09:54:18.150Z,150
2018-07-26T09:55:18.410Z,155
2018-07-26T09:56:18.152Z,155
2018-07-26T09:57:18.136Z,180
2018-07-26T09:58:17.874Z,210
2018-07-26T09:59:18.937Z,170
2018-07-26T10:00:18.535Z,230
2018-07-26T10:01:18.138Z,205
2018-07-26T10:02:18.662Z,505
2018-07-26T10:03:18.457Z,210
2018-07-26T10:04:18.396Z,255
2018-07-26T10:05:18.915Z,160
2018-07-26T10:06:18.663Z,215
2018-07-26T10:07:18.133Z,310
2018-07-26T10:08:18.395Z,185
2018-07-26T10:09:18.665Z,180
2018-07-26T10:10:18.395Z,175
2018-07-26T10:11:18.384Z,165
2018-07-26T10:12:18.385Z,190
2018-07-26T10:13:18.850Z,170
2018-07-26T10:14:18.649Z,185
2018-07-26T10:15:18.118Z,195
2018-07-26T10:16:18.645Z,175
2018-07-26T10:17:17.853Z,175
2018-07-26T10:18:18.385Z,175
2018-07-26T10:19:18.915Z,175
2018-07-26T10:20:19.141Z,185
2018-07-26T10:21:18.638Z,190
2018-07-26T10:22:18.106Z,200
2018-07-26T10:23:18.374Z,245
2018-07-26T10:24:18.371Z,240
2018-07-26T10:25:18.633Z,210
2018-07-26T10:26:18.370Z,320
2018-07-26T10:27:18.629Z,210
2018-07-26T10:28:18.631Z,210
2018-07-26T10:29:18.369Z,555
2018-07-26T10:30:18.372Z,695
2018-07-26T10:31:18.891Z,1070
2018-07-26T10:32:18.892Z,1715
2018-07-26T10:33:18.633Z,1770
2018-07-26T10:34:18.649Z,1850
2018-07-26T10:35:18.364Z,1610
2018-07-26T10:36:18.970Z,1750
2018-07-26T10:37:18.631Z,1770
2018-07-26T10:38:18.366Z,1820
2018-07-26T10:39:18.621Z,1855
2018-07-26T10:40:18.104Z,1860
2018-07-26T10:41:18.109Z,1895
2018-07-26T10:42:18.377Z,1940
2018-07-26T10:43:18.641Z,1950
2018-07-26T10:44:18.917Z,1945
2018-07-26T10:45:18.388Z,1920
2018-07-26T10:46:18.662Z,1925
2018-07-26T10:47:17.876Z,1960
2018-07-26T10:48:18.925Z,1985
2018-07-26T10:49:18.671Z,2065
2018-07-26T10:50:18.434Z,2160
2018-07-26T10:51:18.159Z,2125
2018-07-26T10:52:18.157Z,2065
2018-07-26T10:53:18.705Z,2030
2018-07-26T10:54:18.695Z,1970
2018-07-26T10:55:18.183Z,1960
2018-07-26T10:56:18.978Z,1975
2018-07-26T10:57:18.722Z,1990
2018-07-26T10:58:18.720Z,2000
2018-07-26T10:59:17.945Z,1975
2018-07-26T11:00:18.545Z,1915
2018-07-26T11:01:18.483Z,1880
2018-07-26T11:02:19.020Z,1895
2018-07-26T11:03:18.764Z,1910
2018-07-26T11:04:18.250Z,1915
2018-07-26T11:05:18.516Z,1920
2018-07-26T11:06:18.789Z,1885
2018-07-26T11:07:18.315Z,1845
2018-07-26T11:08:18.535Z,1825
2018-07-26T11:09:18.823Z,1840
2018-07-26T11:10:18.313Z,1885
2018-07-26T11:11:18.306Z,1930
2018-07-26T11:12:18.311Z,1925
2018-07-26T11:13:18.857Z,1890
2018-07-26T11:14:18.342Z,1855
2018-07-26T11:15:18.416Z,1820
2018-07-26T11:16:18.353Z,1750
2018-07-26T11:17:18.896Z,1715
2018-07-26T11:18:18.634Z,1730
2018-07-26T11:19:18.652Z,1785
2018-07-26T11:20:18.646Z,1850
2018-07-26T11:21:18.949Z,1880
2018-07-26T11:22:18.678Z,1875
2018-07-26T11:23:18.939Z,1815
2018-07-26T11:24:18.887Z,1735
2018-07-26T11:25:19.236Z,1650
2018-07-26T11:26:18.450Z,1625
2018-07-26T11:27:18.807Z,1705
2018-07-26T11:28:18.994Z,1805
2018-07-26T11:29:19.281Z,1910
2018-07-26T11:30:18.486Z,1935
2018-07-26T11:31:19.017Z,1925
2018-07-26T11:32:18.835Z,1935
2018-07-26T11:33:18.794Z,1890
2018-07-26T11:34:18.793Z,1900
2018-07-26T11:35:18.797Z,1920
2018-07-26T11:36:18.549Z,1920
2018-07-26T11:37:18.301Z,1930
2018-07-26T11:38:18.837Z,1835
2018-07-26T11:39:18.586Z,1780
2018-07-26T11:40:18.585Z,1835
2018-07-26T11:41:19.274Z,1940
2018-07-26T11:42:18.894Z,1970
2018-07-26T11:43:18.886Z,1880
2018-07-26T11:44:19.428Z,1750
2018-07-26T11:45:19.182Z,1750
2018-07-26T11:46:18.917Z,1855
2018-07-26T11:47:19.194Z,1980
2018-07-26T11:48:19.206Z,2060
2018-07-26T11:49:18.943Z,2000
2018-07-26T11:50:19.821Z,1910
2018-07-26T11:51:18.980Z,1920
2018-07-26T11:52:18.721Z,1980
2018-07-26T11:53:19.534Z,1985
2018-07-26T11:54:18.482Z,1980
2018-07-26T11:55:19.018Z,1935
2018-07-26T11:56:19.026Z,1885
2018-07-26T11:57:19.039Z,1850
2018-07-26T11:58:18.792Z,1905
2018-07-26T11:59:19.062Z,1960
2018-07-26T12:00:19.083Z,2010
2018-07-26T12:01:18.883Z,2000
2018-07-26T12:02:19.414Z,1990
2018-07-26T12:03:19.647Z,1970
2018-07-26T12:04:19.663Z,1945
2018-07-26T12:05:19.149Z,1935
2018-07-26T12:06:19.149Z,1910
2018-07-26T12:07:19.431Z,1915
2018-07-26T12:08:18.960Z,1890
2018-07-26T12:09:19.193Z,1770
2018-07-26T12:10:19.191Z,1730
2018-07-26T12:11:19.204Z,1740
2018-07-26T12:12:19.480Z,1795
2018-07-26T12:13:19.436Z,1880
2018-07-26T12:14:19.675Z,1910
2018-07-26T12:15:19.531Z,1905
2018-07-26T12:16:19.270Z,1860
2018-07-26T12:17:19.538Z,1805
2018-07-26T12:18:19.039Z,1790
2018-07-26T12:19:19.573Z,1820
2018-07-26T12:20:19.331Z,1895
2018-07-26T12:21:19.319Z,1920
2018-07-26T12:22:19.342Z,1930
2018-07-26T12:23:19.200Z,1940
2018-07-26T12:24:19.361Z,1925
2018-07-26T12:25:19.397Z,1870
2018-07-26T12:26:19.378Z,1865
2018-07-26T12:27:19.599Z,1875
2018-07-26T12:28:19.409Z,1865
2018-07-26T12:29:19.424Z,1910
2018-07-26T12:30:19.440Z,1920
2018-07-26T12:31:19.507Z,1920
2018-07-26T12:32:19.729Z,1915
2018-07-26T12:33:19.505Z,1905
2018-07-26T12:34:19.488Z,1835
2018-07-26T12:35:20.042Z,1745
2018-07-26T12:36:19.508Z,1720
2018-07-26T12:37:19.543Z,1700
2018-07-26T12:38:19.827Z,1740
2018-07-26T12:39:19.800Z,1775
2018-07-26T12:40:19.557Z,1735
2018-07-26T12:41:19.430Z,1745
2018-07-26T12:42:19.843Z,1715
2018-07-26T12:43:19.590Z,1635
2018-07-26T12:44:19.337Z,1555
2018-07-26T12:45:19.624Z,1510
2018-07-26T12:46:19.635Z,1510
2018-07-26T12:47:19.683Z,1560
2018-07-26T12:48:19.928Z,1675
2018-07-26T12:49:19.924Z,1805
2018-07-26T12:50:19.671Z,1935
2018-07-26T12:51:19.708Z,1975
2018-07-26T12:52:20.227Z,1920
2018-07-26T12:53:20.340Z,1890
2018-07-26T12:54:19.717Z,1855
2018-07-26T12:55:19.517Z,1795
2018-07-26T12:56:19.485Z,1770
2018-07-26T12:57:19.774Z,1780
2018-07-26T12:58:20.044Z,1815
2018-07-26T12:59:20.046Z,1805
2018-07-26T13:00:20.062Z,1740
2018-07-26T13:01:20.086Z,1710
2018-07-26T13:02:19.815Z,1690
2018-07-26T13:03:19.575Z,1705
2018-07-26T13:04:19.849Z,1750
2018-07-26T13:05:19.866Z,1785
2018-07-26T13:06:19.870Z,1845
2018-07-26T13:07:20.414Z,1855
2018-07-26T13:08:20.159Z,1875
2018-07-26T13:09:19.912Z,1865
2018-07-26T13:10:19.931Z,1860
2018-07-26T13:11:20.190Z,1840
2018-07-26T13:12:20.305Z,1855
2018-07-26T13:13:19.956Z,1925
2018-07-26T13:14:19.717Z,1955
2018-07-26T13:15:19.712Z,1985
2018-07-26T13:16:20.263Z,1950
2018-07-26T13:17:20.018Z,1920
2018-07-26T13:18:19.758Z,1890
2018-07-26T13:19:20.303Z,1845
2018-07-26T13:20:20.333Z,1825
2018-07-26T13:21:20.057Z,1820
2018-07-26T13:22:20.072Z,1830
2018-07-26T13:23:20.345Z,1870
2018-07-26T13:24:20.108Z,1855
2018-07-26T13:25:20.367Z,1810
2018-07-26T13:26:20.385Z,1780
2018-07-26T13:27:20.464Z,1760
2018-07-26T13:28:20.398Z,1745
2018-07-26T13:29:20.153Z,1765
2018-07-26T13:30:20.168Z,1805
2018-07-26T13:31:20.704Z,1830
2018-07-26T13:32:19.923Z,1815
2018-07-26T13:33:20.474Z,1780
2018-07-26T13:34:20.364Z,1755
2018-07-26T13:35:20.266Z,1740
2018-07-26T13:36:20.006Z,1685
2018-07-26T13:37:20.272Z,1595
2018-07-26T13:38:20.516Z,1555
2018-07-26T13:39:20.288Z,1600
2018-07-26T13:40:20.085Z,1675
2018-07-26T13:41:20.616Z,1720
2018-07-26T13:42:20.315Z,1730
2018-07-26T13:43:20.581Z,1705
2018-07-26T13:44:20.651Z,1680
2018-07-26T13:45:20.356Z,1685
2018-07-26T13:46:21.198Z,1680
2018-07-26T13:47:20.357Z,1665
2018-07-26T13:48:20.642Z,1645
2018-07-26T13:49:20.649Z,1625
2018-07-26T13:50:20.135Z,1640
2018-07-26T13:51:20.673Z,1700
2018-07-26T13:52:20.792Z,1670
2018-07-26T13:53:20.166Z,1620
2018-07-26T13:54:20.703Z,1590
2018-07-26T13:55:20.716Z,1635
2018-07-26T13:56:20.189Z,1695
2018-07-26T13:57:20.744Z,1695
2018-07-26T13:58:20.271Z,1670